Time;durP1;ratioP1;P1;durP2;ratioP2;P2;SDS_P1;SDS_P2;PMS_P1;PMS_P2;Temp;Humidity;BMP_temperature;BMP_pressure;BME280_temperature;BME280_humidity;BME280_pressure;Samples;Min_cycle;Max_cycle;Signal;HPM_P1;HPM_P2
2022/12/04 00:02:04;;;;;;;9.70;3.55;;;;;;;;;;6271775;22;20011;-95
2022/12/04 00:04:29;;;;;;;9.02;3.38;;;;;;;;;;6272097;22;20584;-94
2022/12/04 00:06:54;;;;;;;13.65;3.95;;;;;;;;;;6273720;22;20000;-95
2022/12/04 00:09:20;;;;;;;10.27;3.72;;;;;;;;;;6245085;22;20106;-94
2022/12/04 00:11:49;;;;;;;11.45;3.70;;;;;;;;;;6272459;22;20026;-94
2022/12/04 00:14:14;;;;;;;11.40;3.95;;;;;;;;;;6273492;22;19999;-95
2022/12/04 00:16:39;;;;;;;10.40;3.55;;;;;;;;;;6272927;22;20623;-96
2022/12/04 00:19:05;;;;;;;12.50;3.63;;;;;;;;;;6301602;22;20015;-95
2022/12/04 00:21:30;;;;;;;14.73;3.78;;;;;;;;;;6302246;22;20031;-95
2022/12/04 00:23:55;;;;;;;12.35;3.72;;;;;;;;;;6304249;22;19992;-95
2022/12/04 00:26:22;;;;;;;14.35;4.80;;;;;;;;;;6302738;22;20011;-95
2022/12/04 00:28:48;;;;;;;10.65;3.67;;;;;;;;;;6303594;22;19996;-94
2022/12/04 00:31:18;;;;;;;13.45;3.60;;;;;;;;;;6302413;22;20004;-94
2022/12/04 00:33:43;;;;;;;11.10;3.45;;;;;;;;;;6301731;22;20015;-93
2022/12/04 00:36:10;;;;;;;14.25;4.03;;;;;;;;;;6302105;22;20074;-94
2022/12/04 00:38:36;;;;;;;13.48;4.35;;;;;;;;;;6302472;22;20397;-94
2022/12/04 00:41:02;;;;;;;14.60;3.83;;;;;;;;;;6302303;22;20010;-94
2022/12/04 00:43:28;;;;;;;14.10;4.13;;;;;;;;;;6301542;22;20019;-96
2022/12/04 00:45:53;;;;;;;13.85;3.78;;;;;;;;;;6302990;22;20035;-95
2022/12/04 00:48:19;;;;;;;13.63;4.00;;;;;;;;;;6303024;22;20049;-94
2022/12/04 00:50:44;;;;;;;13.55;4.43;;;;;;;;;;6301743;22;20548;-94
2022/12/04 00:53:10;;;;;;;11.27;4.07;;;;;;;;;;6302785;22;19999;-94
2022/12/04 00:55:42;;;;;;;13.82;3.97;;;;;;;;;;6303794;22;20543;-96
2022/12/04 00:58:07;;;;;;;11.13;3.88;;;;;;;;;;6303045;22;20011;-95
2022/12/04 01:00:37;;;;;;;12.27;4.35;;;;;;;;;;6303281;22;20003;-95
2022/12/04 01:03:02;;;;;;;15.75;4.78;;;;;;;;;;6303209;22;20062;-96
2022/12/04 01:05:28;;;;;;;14.50;4.20;;;;;;;;;;6304837;22;20417;-96
2022/12/04 01:07:53;;;;;;;12.65;4.82;;;;;;;;;;6301928;22;20027;-96
2022/12/04 01:10:19;;;;;;;16.75;5.00;;;;;;;;;;6304725;22;20003;-95
2022/12/04 01:12:51;;;;;;;11.63;4.40;;;;;;;;;;6303682;22;20022;-96
2022/12/04 01:15:17;;;;;;;13.00;4.60;;;;;;;;;;6303298;22;20007;-95
2022/12/04 01:17:44;;;;;;;11.43;3.90;;;;;;;;;;6300484;22;20094;-95
2022/12/04 01:20:10;;;;;;;11.20;3.42;;;;;;;;;;6301252;22;20117;-94
2022/12/04 01:22:35;;;;;;;15.15;4.10;;;;;;;;;;6299989;22;20038;-94
2022/12/04 01:25:01;;;;;;;14.95;3.90;;;;;;;;;;6303231;22;20049;-94
2022/12/04 01:27:27;;;;;;;13.48;4.38;;;;;;;;;;6275341;22;20022;-93
2022/12/04 01:29:53;;;;;;;13.05;4.65;;;;;;;;;;6301977;22;20007;-93
2022/12/04 01:32:18;;;;;;;13.30;4.32;;;;;;;;;;6300176;22;20716;-94
2022/12/04 01:34:43;;;;;;;19.48;5.20;;;;;;;;;;6300502;22;20026;-94
2022/12/04 01:37:09;;;;;;;14.18;4.57;;;;;;;;;;6301349;22;20441;-94
2022/12/04 01:39:35;;;;;;;15.20;4.57;;;;;;;;;;6299757;22;20635;-93
2022/12/04 01:42:00;;;;;;;16.65;4.90;;;;;;;;;;6299883;22;20011;-93
2022/12/04 01:44:25;;;;;;;14.80;4.25;;;;;;;;;;6299100;22;20015;-93
2022/12/04 01:47:00;;;;;;;12.25;4.22;;;;;;;;;;6300504;22;20010;-92
2022/12/04 01:49:25;;;;;;;16.63;4.25;;;;;;;;;;6297998;22;20097;-94
2022/12/04 01:51:53;;;;;;;13.30;4.15;;;;;;;;;;6299336;22;20011;-94
2022/12/04 01:54:27;;;;;;;13.23;5.13;;;;;;;;;;6300111;22;20002;-93
2022/12/04 01:56:52;;;;;;;;;;;;;;;;;;6302397;22;20007;-94
2022/12/04 01:59:20;;;;;;;16.35;3.90;;;;;;;;;;6302184;22;19949;-95
2022/12/04 02:01:52;;;;;;;10.73;3.60;;;;;;;;;;6302435;22;20007;-94
2022/12/04 02:04:18;;;;;;;13.48;4.10;;;;;;;;;;6301366;22;20007;-93
2022/12/04 02:06:43;;;;;;;12.45;4.05;;;;;;;;;;6302754;22;20063;-94
2022/12/04 02:09:08;;;;;;;20.38;5.03;;;;;;;;;;6301210;22;20003;-94
2022/12/04 02:11:53;;;;;;;16.67;3.50;;;;;;;;;;6304074;22;20680;-96
2022/12/04 02:14:33;;;;;;;9.68;3.25;;;;;;;;;;6302889;22;19995;-96
2022/12/04 02:17:09;;;;;;;12.10;3.50;;;;;;;;;;6308094;22;20007;-96
2022/12/04 02:19:54;;;;;;;11.50;4.05;;;;;;;;;;6306505;22;20006;-95
2022/12/04 02:22:49;;;;;;;11.45;4.13;;;;;;;;;;6304010;22;20549;-94
2022/12/04 02:25:15;;;;;;;11.98;3.70;;;;;;;;;;6303384;22;20011;-94
2022/12/04 02:27:40;;;;;;;12.10;3.87;;;;;;;;;;6303401;22;20094;-94
2022/12/04 02:30:07;;;;;;;10.10;3.63;;;;;;;;;;6304800;22;20223;-95
2022/12/04 02:32:42;;;;;;;10.35;3.83;;;;;;;;;;6303554;22;20006;-94
2022/12/04 02:35:07;;;;;;;12.13;3.78;;;;;;;;;;6303459;22;20006;-93
2022/12/04 02:37:37;;;;;;;11.05;4.57;;;;;;;;;;6330436;22;20007;-93
2022/12/04 02:40:08;;;;;;;15.35;4.38;;;;;;;;;;6303282;22;20539;-94
2022/12/04 02:42:39;;;;;;;15.95;4.57;;;;;;;;;;6305538;22;20320;-94
2022/12/04 02:45:13;;;;;;;15.25;3.70;;;;;;;;;;6306780;22;20007;-96
2022/12/04 02:47:40;;;;;;;10.43;3.90;;;;;;;;;;6335853;22;20010;-94
2022/12/04 02:50:07;;;;;;;8.02;3.22;;;;;;;;;;6307601;22;20082;-95
2022/12/04 02:52:35;;;;;;;9.10;3.40;;;;;;;;;;6334137;22;20001;-95
2022/12/04 02:55:09;;;;;;;9.98;3.42;;;;;;;;;;6335276;22;19999;-95
2022/12/04 02:57:38;;;;;;;11.93;3.72;;;;;;;;;;6307119;22;20436;-94
2022/12/04 03:00:07;;;;;;;38.42;5.43;;;;;;;;;;6305404;22;20073;-95
2022/12/04 03:02:33;;;;;;;70.47;8.32;;;;;;;;;;6236117;22;20019;-91
2022/12/04 03:05:01;;;;;;;142.88;11.65;;;;;;;;;;6296500;22;20077;-90
2022/12/04 03:07:31;;;;;;;113.97;9.45;;;;;;;;;;6295203;22;20003;-91
2022/12/04 03:09:59;;;;;;;197.68;13.82;;;;;;;;;;6298378;22;20011;-90
2022/12/04 03:12:43;;;;;;;220.02;18.42;;;;;;;;;;6296823;22;20011;-91
2022/12/04 03:15:11;;;;;;;334.05;20.52;;;;;;;;;;6296997;22;20007;-91
2022/12/04 03:17:39;;;;;;;249.70;16.55;;;;;;;;;;6271020;22;20443;-90
2022/12/04 03:20:06;;;;;;;293.45;18.85;;;;;;;;;;6271175;22;20015;-89
2022/12/04 03:22:33;;;;;;;265.58;15.10;;;;;;;;;;6295903;22;20057;-90
2022/12/04 03:24:59;;;;;;;147.25;10.90;;;;;;;;;;6298028;22;20060;-91
2022/12/04 03:27:24;;;;;;;154.50;11.35;;;;;;;;;;6270749;22;20351;-91
2022/12/04 03:29:56;;;;;;;271.73;16.42;;;;;;;;;;6298580;22;20003;-90
2022/12/04 03:32:27;;;;;;;365.20;21.40;;;;;;;;;;6297510;22;20348;-90
2022/12/04 03:34:58;;;;;;;358.73;22.63;;;;;;;;;;6296126;22;20003;-90
2022/12/04 03:37:30;;;;;;;259.13;18.13;;;;;;;;;;6294964;22;20054;-90
2022/12/04 03:39:58;;;;;;;400.48;24.88;;;;;;;;;;6298040;22;20572;-90
2022/12/04 03:42:32;;;;;;;110.88;9.90;;;;;;;;;;6296041;22;20007;-90
2022/12/04 03:45:05;;;;;;;218.25;15.80;;;;;;;;;;6294236;22;20011;-91
2022/12/04 03:47:33;;;;;;;151.02;13.13;;;;;;;;;;6295386;22;20333;-91
2022/12/04 03:50:06;;;;;;;116.38;10.68;;;;;;;;;;6296460;22;20436;-91
2022/12/04 03:52:32;;;;;;;;;;;;;;;;;;6269090;22;20013;-90
2022/12/04 03:55:20;;;;;;;238.90;16.83;;;;;;;;;;6296277;22;19969;-91
2022/12/04 03:57:46;;;;;;;168.75;12.80;;;;;;;;;;6171718;23;20227;-90
2022/12/04 04:00:13;;;;;;;106.05;10.57;;;;;;;;;;6146344;23;20083;-90
2022/12/04 04:02:41;;;;;;;55.90;6.85;;;;;;;;;;6145512;23;20021;-91
2022/12/04 04:05:08;;;;;;;15.73;4.13;;;;;;;;;;6196216;23;20021;-91
2022/12/04 04:07:47;;;;;;;9.85;3.53;;;;;;;;;;6171259;23;20093;-91
2022/12/04 04:10:14;;;;;;;12.95;4.20;;;;;;;;;;6172245;23;20336;-91
2022/12/04 04:12:43;;;;;;;12.38;4.15;;;;;;;;;;6196314;23;20004;-90
2022/12/04 04:26:15;;;;;;;9.75;3.17;;;;;;;;;;6171982;23;20516;-91
2022/12/04 04:28:41;;;;;;;9.32;3.35;;;;;;;;;;6173091;23;20351;-90
2022/12/04 04:31:24;;;;;;;10.18;2.97;;;;;;;;;;6173093;23;20021;-91
2022/12/04 04:33:57;;;;;;;9.70;3.07;;;;;;;;;;6185350;22;20008;-91
2022/12/04 04:36:28;;;;;;;9.68;3.08;;;;;;;;;;6299056;22;20080;-90
2022/12/04 04:39:05;;;;;;;8.35;2.63;;;;;;;;;;6299448;22;20003;-91
2022/12/04 04:41:44;;;;;;;8.77;2.53;;;;;;;;;;6299342;22;20056;-90
2022/12/04 04:44:23;;;;;;;9.85;3.08;;;;;;;;;;6297831;22;20073;-91
2022/12/04 04:46:51;;;;;;;8.57;3.00;;;;;;;;;;6297563;22;20014;-91
2022/12/04 04:49:17;;;;;;;8.98;2.90;;;;;;;;;;6295413;22;20014;-90
2022/12/04 04:51:43;;;;;;;8.88;2.47;;;;;;;;;;6300280;22;20651;-90
2022/12/04 04:54:11;;;;;;;9.88;3.03;;;;;;;;;;6272223;22;20003;-90
2022/12/04 04:56:43;;;;;;;9.05;2.95;;;;;;;;;;6297662;22;20439;-91
2022/12/04 04:59:09;;;;;;;12.27;3.00;;;;;;;;;;6299854;22;20076;-90
2022/12/04 05:01:35;;;;;;;9.40;3.10;;;;;;;;;;6300151;22;20467;-91
2022/12/04 05:04:02;;;;;;;8.70;2.63;;;;;;;;;;6300394;22;20132;-91
2022/12/04 05:06:27;;;;;;;9.70;2.85;;;;;;;;;;6300149;22;20008;-91
2022/12/04 05:08:52;;;;;;;9.27;2.78;;;;;;;;;;6299044;22;20007;-91
2022/12/04 05:11:17;;;;;;;8.00;2.58;;;;;;;;;;6271390;22;20003;-90
2022/12/04 05:13:43;;;;;;;10.95;2.97;;;;;;;;;;6297081;22;19992;-90
2022/12/04 05:16:12;;;;;;;10.80;3.25;;;;;;;;;;6298091;22;19995;-90
2022/12/04 05:18:37;;;;;;;13.60;3.47;;;;;;;;;;6269463;22;20031;-90
2022/12/04 05:21:06;;;;;;;18.77;3.85;;;;;;;;;;6298390;22;20030;-91
2022/12/04 05:23:31;;;;;;;12.85;3.33;;;;;;;;;;6296475;22;20088;-90
2022/12/04 05:26:00;;;;;;;59.40;6.10;;;;;;;;;;6296381;22;20508;-91
2022/12/04 05:28:26;;;;;;;34.65;5.18;;;;;;;;;;6269281;22;20011;-90
2022/12/04 05:30:59;;;;;;;22.83;5.05;;;;;;;;;;6270365;22;20587;-89
2022/12/04 05:33:24;;;;;;;114.38;8.98;;;;;;;;;;6268944;22;20007;-89
2022/12/04 05:35:56;;;;;;;24.92;4.45;;;;;;;;;;6269263;22;20666;-89
2022/12/04 05:38:22;;;;;;;24.92;4.18;;;;;;;;;;6295237;22;20023;-89
2022/12/04 05:40:47;;;;;;;183.50;13.02;;;;;;;;;;6269463;22;20068;-88
2022/12/04 05:43:12;;;;;;;184.53;12.53;;;;;;;;;;6296997;22;20010;-90
2022/12/04 05:45:37;;;;;;;89.97;7.25;;;;;;;;;;6270890;22;20787;-90
2022/12/04 05:48:03;;;;;;;44.30;5.55;;;;;;;;;;6269534;22;20011;-90
2022/12/04 05:50:28;;;;;;;147.10;11.98;;;;;;;;;;6295626;22;20609;-90
2022/12/04 05:52:54;;;;;;;71.97;7.78;;;;;;;;;;6295840;22;20518;-90
2022/12/04 05:55:19;;;;;;;235.05;16.48;;;;;;;;;;6298743;22;20015;-90
2022/12/04 05:57:44;;;;;;;497.58;31.40;;;;;;;;;;6297736;22;20007;-90
2022/12/04 06:00:10;;;;;;;361.27;24.15;;;;;;;;;;6296314;22;20007;-90
2022/12/04 06:02:35;;;;;;;337.73;21.30;;;;;;;;;;6297845;22;20011;-89
2022/12/04 06:05:00;;;;;;;273.60;18.50;;;;;;;;;;6296711;22;20345;-89
2022/12/04 06:07:26;;;;;;;375.30;22.95;;;;;;;;;;6297727;22;20070;-90
2022/12/04 06:09:54;;;;;;;436.23;31.97;;;;;;;;;;6299727;22;20421;-91
2022/12/04 06:12:19;;;;;;;426.77;27.75;;;;;;;;;;6297720;22;20240;-91
2022/12/04 06:14:45;;;;;;;431.20;30.88;;;;;;;;;;6270737;22;20007;-90
2022/12/04 06:17:10;;;;;;;355.80;24.85;;;;;;;;;;6295972;22;20010;-91
2022/12/04 06:19:35;;;;;;;197.25;16.92;;;;;;;;;;6298390;22;20785;-90
2022/12/04 06:22:00;;;;;;;179.35;15.80;;;;;;;;;;6297766;22;20011;-91
2022/12/04 06:24:26;;;;;;;155.20;12.18;;;;;;;;;;6270212;22;20089;-90
2022/12/04 06:26:55;;;;;;;398.30;30.90;;;;;;;;;;6295740;22;20007;-91
2022/12/04 06:29:20;;;;;;;312.45;26.15;;;;;;;;;;6296859;22;20014;-91
2022/12/04 06:31:45;;;;;;;352.60;24.77;;;;;;;;;;6297664;22;20007;-90
2022/12/04 06:34:11;;;;;;;449.52;30.15;;;;;;;;;;6271220;22;19999;-90
2022/12/04 06:36:36;;;;;;;472.15;38.65;;;;;;;;;;6297084;22;20083;-90
2022/12/04 06:39:02;;;;;;;336.10;23.48;;;;;;;;;;6270051;22;20429;-90
2022/12/04 06:41:27;;;;;;;290.20;25.83;;;;;;;;;;6296552;22;20376;-91
2022/12/04 06:43:53;;;;;;;397.02;28.70;;;;;;;;;;6299416;22;20018;-90
2022/12/04 06:46:20;;;;;;;237.57;16.48;;;;;;;;;;6299036;22;20394;-91
2022/12/04 06:48:45;;;;;;;359.70;22.60;;;;;;;;;;6297455;22;20003;-91
2022/12/04 06:51:12;;;;;;;352.48;27.00;;;;;;;;;;6299657;22;20003;-90
2022/12/04 06:53:38;;;;;;;393.92;28.67;;;;;;;;;;6297008;22;19999;-90
2022/12/04 06:56:05;;;;;;;391.45;31.42;;;;;;;;;;6271336;22;20007;-91
2022/12/04 06:58:32;;;;;;;408.67;25.10;;;;;;;;;;6298505;22;20436;-91
2022/12/04 07:00:57;;;;;;;316.55;18.83;;;;;;;;;;6296981;22;20027;-91
2022/12/04 07:03:23;;;;;;;275.60;16.90;;;;;;;;;;6255840;22;20342;-91
2022/12/04 07:05:48;;;;;;;257.00;18.58;;;;;;;;;;6241208;22;20012;-90
2022/12/04 07:08:14;;;;;;;287.77;20.65;;;;;;;;;;6240345;22;20045;-91
2022/12/04 07:10:40;;;;;;;154.32;13.70;;;;;;;;;;6239759;22;20003;-91
2022/12/04 07:13:05;;;;;;;105.32;9.43;;;;;;;;;;6240354;22;20377;-91
2022/12/04 07:15:33;;;;;;;212.80;14.77;;;;;;;;;;6240479;22;20551;-90
2022/12/04 07:17:58;;;;;;;218.23;17.77;;;;;;;;;;6266926;22;20008;-91
2022/12/04 07:20:23;;;;;;;175.75;12.85;;;;;;;;;;6239025;22;20018;-93
2022/12/04 07:22:48;;;;;;;227.10;14.95;;;;;;;;;;6238407;22;20011;-90
2022/12/04 07:25:14;;;;;;;482.83;37.88;;;;;;;;;;6238747;22;20004;-90
2022/12/04 07:27:39;;;;;;;380.25;27.58;;;;;;;;;;6239688;22;20007;-91
2022/12/04 07:30:08;;;;;;;552.72;45.72;;;;;;;;;;6266666;22;20433;-90
2022/12/04 07:32:33;;;;;;;516.22;43.38;;;;;;;;;;6269790;22;20007;-90
2022/12/04 07:34:59;;;;;;;642.70;58.17;;;;;;;;;;6270852;22;20000;-91
2022/12/04 07:37:24;;;;;;;666.55;64.57;;;;;;;;;;6242438;22;20065;-91
2022/12/04 07:39:50;;;;;;;653.63;60.60;;;;;;;;;;6238087;22;20007;-91
2022/12/04 07:42:15;;;;;;;766.15;73.35;;;;;;;;;;6238883;22;20007;-91
2022/12/04 07:44:41;;;;;;;664.17;61.75;;;;;;;;;;6239504;22;20013;-91
2022/12/04 07:47:06;;;;;;;737.47;73.72;;;;;;;;;;6238805;22;20027;-89
2022/12/04 07:49:31;;;;;;;661.90;52.05;;;;;;;;;;6238393;22;20004;-91
2022/12/04 07:51:57;;;;;;;693.70;60.22;;;;;;;;;;6239646;22;20011;-91
2022/12/04 07:54:22;;;;;;;675.15;64.70;;;;;;;;;;6271599;22;20007;-92
2022/12/04 07:56:47;;;;;;;699.53;65.63;;;;;;;;;;6267747;22;20007;-92
2022/12/04 07:59:12;;;;;;;698.80;69.85;;;;;;;;;;6271084;22;20101;-92
2022/12/04 08:01:38;;;;;;;664.88;61.40;;;;;;;;;;6297472;22;20336;-92
2022/12/04 08:04:03;;;;;;;728.40;68.13;;;;;;;;;;6272033;22;20077;-92
2022/12/04 08:06:31;;;;;;;621.53;49.03;;;;;;;;;;6299450;22;20440;-93
2022/12/04 08:08:56;;;;;;;724.78;68.32;;;;;;;;;;6296040;22;20062;-92
2022/12/04 08:11:23;;;;;;;630.08;49.83;;;;;;;;;;6299673;22;20437;-92
2022/12/04 08:13:52;;;;;;;677.67;74.15;;;;;;;;;;6272728;22;20007;-92
2022/12/04 08:16:17;;;;;;;655.60;66.03;;;;;;;;;;6299993;22;19995;-93
2022/12/04 08:18:47;;;;;;;751.40;71.57;;;;;;;;;;6298327;22;20324;-93
2022/12/04 08:21:13;;;;;;;612.75;55.22;;;;;;;;;;6299066;22;20007;-92
2022/12/04 08:23:39;;;;;;;640.10;54.55;;;;;;;;;;6300300;22;20605;-91
2022/12/04 08:26:06;;;;;;;657.85;52.65;;;;;;;;;;6299619;22;20056;-91
2022/12/04 08:28:31;;;;;;;505.67;42.15;;;;;;;;;;6270633;22;20007;-91
2022/12/04 08:31:04;;;;;;;449.70;34.90;;;;;;;;;;6300460;22;20057;-92
2022/12/04 08:33:29;;;;;;;488.30;38.45;;;;;;;;;;6299469;22;19996;-91
2022/12/04 08:35:54;;;;;;;562.15;45.97;;;;;;;;;;6272747;22;20025;-91
2022/12/04 08:38:20;;;;;;;447.45;36.80;;;;;;;;;;6271645;22;20064;-91
2022/12/04 08:40:45;;;;;;;465.38;33.40;;;;;;;;;;6272612;22;20022;-93
2022/12/04 08:43:10;;;;;;;516.33;42.75;;;;;;;;;;6300490;22;20894;-92
2022/12/04 08:45:35;;;;;;;553.03;48.40;;;;;;;;;;6300175;22;20004;-92
2022/12/04 08:48:01;;;;;;;562.65;42.35;;;;;;;;;;6300071;22;20004;-92
2022/12/04 08:50:26;;;;;;;562.88;45.30;;;;;;;;;;6300338;22;20018;-91
2022/12/04 08:52:52;;;;;;;568.55;41.58;;;;;;;;;;6301939;22;20498;-90
2022/12/04 08:55:17;;;;;;;491.13;36.25;;;;;;;;;;6297882;22;20031;-91
2022/12/04 08:57:42;;;;;;;403.83;30.05;;;;;;;;;;6273215;22;20011;-91
2022/12/04 09:00:07;;;;;;;546.80;46.10;;;;;;;;;;6273448;22;20032;-91
2022/12/04 09:02:33;;;;;;;398.60;29.65;;;;;;;;;;6271050;22;20247;-90
2022/12/04 09:04:58;;;;;;;609.55;53.65;;;;;;;;;;6273149;22;20042;-90
2022/12/04 09:07:23;;;;;;;724.63;60.78;;;;;;;;;;6297278;22;20121;-91
2022/12/04 09:09:49;;;;;;;693.50;61.72;;;;;;;;;;6300319;22;20491;-90
2022/12/04 09:12:14;;;;;;;594.58;47.83;;;;;;;;;;6297861;22;20013;-91
2022/12/04 09:14:39;;;;;;;512.22;38.33;;;;;;;;;;6270718;22;20037;-92
2022/12/04 09:17:05;;;;;;;339.45;27.17;;;;;;;;;;6299290;22;20011;-92
2022/12/04 09:19:31;;;;;;;476.48;40.65;;;;;;;;;;6301781;22;20003;-92
2022/12/04 09:21:56;;;;;;;546.15;42.13;;;;;;;;;;6297897;22;20023;-92
2022/12/04 09:24:22;;;;;;;381.75;27.35;;;;;;;;;;6298455;22;20030;-91
2022/12/04 09:26:47;;;;;;;386.77;26.98;;;;;;;;;;6297092;22;20011;-91
2022/12/04 09:29:12;;;;;;;396.00;29.73;;;;;;;;;;6297839;22;20488;-90
2022/12/04 09:31:38;;;;;;;431.70;33.03;;;;;;;;;;6300657;22;20332;-92
2022/12/04 09:34:03;;;;;;;94.22;12.45;;;;;;;;;;6271446;22;20326;-93
2022/12/04 09:36:28;;;;;;;344.52;25.70;;;;;;;;;;6298150;22;20451;-91
2022/12/04 09:38:54;;;;;;;464.80;34.90;;;;;;;;;;6273109;22;20098;-91
2022/12/04 09:41:19;;;;;;;377.42;27.50;;;;;;;;;;6299745;22;20436;-91
2022/12/04 09:43:56;;;;;;;227.07;17.70;;;;;;;;;;6296852;22;20097;-91
2022/12/04 09:46:31;;;;;;;108.40;11.07;;;;;;;;;;6296279;22;20074;-91
2022/12/04 09:49:00;;;;;;;93.20;9.80;;;;;;;;;;6298706;22;20007;-92
2022/12/04 09:51:27;;;;;;;326.70;21.30;;;;;;;;;;6299518;22;20007;-92
2022/12/04 09:54:02;;;;;;;40.08;7.68;;;;;;;;;;6299373;22;20062;-91
2022/12/04 09:56:28;;;;;;;18.90;6.13;;;;;;;;;;6298999;22;20094;-92
2022/12/04 09:59:11;;;;;;;19.75;5.63;;;;;;;;;;6297350;22;20030;-91
2022/12/04 10:01:48;;;;;;;24.55;6.53;;;;;;;;;;6299374;22;20000;-91
2022/12/04 10:04:13;;;;;;;79.18;8.95;;;;;;;;;;6270911;22;20023;-90
2022/12/04 10:06:41;;;;;;;27.15;6.32;;;;;;;;;;6299464;22;20007;-91
2022/12/04 10:09:11;;;;;;;29.67;7.07;;;;;;;;;;6296974;22;20007;-92
2022/12/04 10:11:46;;;;;;;15.48;6.28;;;;;;;;;;6298339;22;20010;-92
2022/12/04 10:14:27;;;;;;;17.48;5.57;;;;;;;;;;6298703;22;20003;-91
2022/12/04 10:17:10;;;;;;;16.95;6.35;;;;;;;;;;6301042;22;20726;-91
2022/12/04 10:19:39;;;;;;;16.85;5.88;;;;;;;;;;6301057;22;20360;-92
2022/12/04 10:22:07;;;;;;;19.25;6.03;;;;;;;;;;6299250;22;20433;-93
2022/12/04 10:24:54;;;;;;;24.63;6.72;;;;;;;;;;6300298;22;19999;-92
2022/12/04 10:27:28;;;;;;;157.82;14.05;;;;;;;;;;6274497;22;20013;-93
2022/12/04 10:29:53;;;;;;;;;;;;;;;;;;6300085;22;20018;-92
2022/12/04 10:32:27;;;;;;;302.23;20.73;;;;;;;;;;6273144;22;20391;-93
2022/12/04 10:34:54;;;;;;;396.77;28.83;;;;;;;;;;6302624;22;20022;-92
2022/12/04 10:37:21;;;;;;;416.48;29.63;;;;;;;;;;6272567;22;20003;-91
2022/12/04 10:39:53;;;;;;;611.05;46.47;;;;;;;;;;6299960;22;19999;-93
2022/12/04 10:42:48;;;;;;;597.03;44.03;;;;;;;;;;6274729;22;20010;-96
2022/12/04 10:45:13;;;;;;;529.65;40.60;;;;;;;;;;6285892;22;20015;-94
2022/12/04 10:47:43;;;;;;;249.63;19.17;;;;;;;;;;6299582;22;20018;-93
2022/12/04 10:50:17;;;;;;;73.13;9.25;;;;;;;;;;6295361;22;20003;-93
2022/12/04 10:52:42;;;;;;;180.60;14.73;;;;;;;;;;6275881;22;20028;-94
2022/12/04 10:55:08;;;;;;;383.52;25.23;;;;;;;;;;6271046;22;20003;-93
2022/12/04 10:57:39;;;;;;;346.77;23.02;;;;;;;;;;6299690;22;20419;-92
2022/12/04 11:00:23;;;;;;;532.80;35.03;;;;;;;;;;6272045;22;20034;-92
2022/12/04 11:02:49;;;;;;;558.75;38.42;;;;;;;;;;6272560;22;20534;-93
2022/12/04 11:05:25;;;;;;;501.75;39.80;;;;;;;;;;6300433;22;20080;-93
2022/12/04 11:07:53;;;;;;;512.65;37.80;;;;;;;;;;6299996;22;20007;-93
2022/12/04 11:10:34;;;;;;;501.02;33.90;;;;;;;;;;6274464;22;20007;-92
2022/12/04 11:13:22;;;;;;;439.60;30.35;;;;;;;;;;6273512;22;20025;-92
2022/12/04 11:15:49;;;;;;;374.00;26.95;;;;;;;;;;6300866;22;20003;-93
2022/12/04 11:18:17;;;;;;;255.05;19.42;;;;;;;;;;6272676;22;20003;-93
2022/12/04 11:21:02;;;;;;;246.43;19.58;;;;;;;;;;6298503;22;20030;-93
2022/12/04 11:23:32;;;;;;;416.20;29.08;;;;;;;;;;6297107;22;20013;-94
2022/12/04 11:25:58;;;;;;;37.30;7.32;;;;;;;;;;6272241;22;20501;-93
2022/12/04 11:28:29;;;;;;;19.27;6.70;;;;;;;;;;6272895;22;20594;-93
2022/12/04 11:30:57;;;;;;;14.88;6.25;;;;;;;;;;6273764;22;20340;-93
2022/12/04 11:33:39;;;;;;;21.40;6.95;;;;;;;;;;6273918;22;20018;-93
2022/12/04 11:36:16;;;;;;;15.95;6.40;;;;;;;;;;6273666;22;20003;-93
2022/12/04 11:38:43;;;;;;;31.80;6.35;;;;;;;;;;6300053;22;20003;-93
2022/12/04 11:41:22;;;;;;;60.90;7.97;;;;;;;;;;6300480;22;20013;-92
2022/12/04 11:43:48;;;;;;;82.45;9.43;;;;;;;;;;6267364;22;20023;-93
2022/12/04 11:46:18;;;;;;;283.15;20.00;;;;;;;;;;6293891;22;20011;-92
2022/12/04 11:48:44;;;;;;;272.88;19.27;;;;;;;;;;6296287;22;20022;-92
2022/12/04 11:51:25;;;;;;;222.52;17.35;;;;;;;;;;6290619;22;19999;-91
2022/12/04 11:54:13;;;;;;;391.48;25.63;;;;;;;;;;6298546;22;19999;-92
2022/12/04 11:56:40;;;;;;;208.82;16.67;;;;;;;;;;6234207;23;20151;-92
2022/12/04 11:59:06;;;;;;;158.60;12.90;;;;;;;;;;6236095;23;20086;-91
2022/12/04 12:01:31;;;;;;;145.63;12.98;;;;;;;;;;6209176;23;20400;-92
2022/12/04 12:04:26;;;;;;;104.38;11.00;;;;;;;;;;6232892;23;20035;-91
2022/12/04 12:07:01;;;;;;;76.07;9.20;;;;;;;;;;6212890;23;20045;-92
2022/12/04 12:09:47;;;;;;;185.32;15.05;;;;;;;;;;6235262;23;20028;-92
2022/12/04 12:12:24;;;;;;;212.27;16.42;;;;;;;;;;6218225;23;20004;-92
2022/12/04 12:15:11;;;;;;;62.65;8.45;;;;;;;;;;6234368;23;20032;-92
2022/12/04 12:17:57;;;;;;;73.97;9.20;;;;;;;;;;6235492;23;20039;-94
2022/12/04 12:20:43;;;;;;;241.85;20.17;;;;;;;;;;6236120;23;20009;-93
2022/12/04 12:23:17;;;;;;;152.55;12.93;;;;;;;;;;6234038;23;20047;-92
2022/12/04 12:25:42;;;;;;;83.50;9.15;;;;;;;;;;6233855;23;20004;-93
2022/12/04 12:28:26;;;;;;;61.80;8.88;;;;;;;;;;6232924;23;20389;-92
2022/12/04 12:30:59;;;;;;;19.33;5.88;;;;;;;;;;6235675;23;20163;-95
2022/12/04 12:33:31;;;;;;;40.42;6.55;;;;;;;;;;6252316;22;20348;-93
2022/12/04 12:36:01;;;;;;;27.27;7.00;;;;;;;;;;6298857;22;20098;-93
2022/12/04 12:38:45;;;;;;;16.42;5.45;;;;;;;;;;6300419;22;20065;-92
2022/12/04 12:41:12;;;;;;;13.65;4.63;;;;;;;;;;6299211;22;20011;-94
2022/12/04 12:43:38;;;;;;;17.77;5.22;;;;;;;;;;6295437;22;20038;-93
2022/12/04 12:46:30;;;;;;;18.33;5.50;;;;;;;;;;6298081;22;20031;-93
2022/12/04 12:49:01;;;;;;;19.95;6.03;;;;;;;;;;6292050;22;20019;-93
2022/12/04 12:51:27;;;;;;;16.48;5.22;;;;;;;;;;6297618;22;20010;-91
2022/12/04 12:53:54;;;;;;;22.83;5.55;;;;;;;;;;6300398;22;20007;-90
2022/12/04 12:56:28;;;;;;;45.85;6.95;;;;;;;;;;6300479;22;19999;-91
2022/12/04 12:58:56;;;;;;;13.77;5.25;;;;;;;;;;6299876;22;20108;-92
2022/12/04 13:01:40;;;;;;;65.57;7.60;;;;;;;;;;6296511;22;20094;-91
2022/12/04 13:04:12;;;;;;;31.75;6.30;;;;;;;;;;6295043;22;20507;-91
2022/12/04 13:06:39;;;;;;;11.38;4.65;;;;;;;;;;6299726;22;20022;-91
2022/12/04 13:09:09;;;;;;;14.13;4.35;;;;;;;;;;6299147;22;20006;-91
2022/12/04 13:11:35;;;;;;;14.27;4.82;;;;;;;;;;6272021;22;20003;-90
2022/12/04 13:14:02;;;;;;;28.83;5.10;;;;;;;;;;6299962;22;19995;-91
2022/12/04 13:16:32;;;;;;;13.32;3.78;;;;;;;;;;6300195;22;20041;-91
2022/12/04 13:19:03;;;;;;;14.10;4.38;;;;;;;;;;6296150;22;20011;-92
2022/12/04 13:21:31;;;;;;;12.32;4.35;;;;;;;;;;6297584;22;20023;-91
2022/12/04 13:23:59;;;;;;;11.48;3.72;;;;;;;;;;6297134;22;20102;-91
2022/12/04 13:26:40;;;;;;;9.27;4.05;;;;;;;;;;6298764;22;20011;-91
2022/12/04 13:29:18;;;;;;;12.02;4.00;;;;;;;;;;6297342;22;20014;-91
2022/12/04 13:31:55;;;;;;;15.32;3.90;;;;;;;;;;6298675;22;20073;-91
2022/12/04 13:34:30;;;;;;;14.48;4.38;;;;;;;;;;6296987;22;20003;-91
2022/12/04 13:37:06;;;;;;;11.90;3.85;;;;;;;;;;6300640;22;19995;-92
2022/12/04 13:39:50;;;;;;;12.52;3.53;;;;;;;;;;6273697;22;20042;-91
2022/12/04 13:42:25;;;;;;;11.52;3.55;;;;;;;;;;6300985;22;20080;-92
2022/12/04 13:44:58;;;;;;;12.00;3.88;;;;;;;;;;6273605;22;20115;-91
2022/12/04 13:47:33;;;;;;;12.40;3.97;;;;;;;;;;6273440;22;20019;-92
2022/12/04 13:50:06;;;;;;;14.45;4.30;;;;;;;;;;6273812;22;20035;-92
2022/12/04 13:52:38;;;;;;;14.65;4.25;;;;;;;;;;6299612;22;20530;-92
2022/12/04 13:55:04;;;;;;;10.17;4.17;;;;;;;;;;6299856;22;20057;-91
2022/12/04 13:57:29;;;;;;;11.25;4.22;;;;;;;;;;6299944;22;20600;-91
2022/12/04 14:00:06;;;;;;;15.25;5.35;;;;;;;;;;6273609;22;20003;-92
2022/12/04 14:02:37;;;;;;;21.55;5.10;;;;;;;;;;6298896;22;20010;-91
2022/12/04 14:05:25;;;;;;;20.80;5.00;;;;;;;;;;6271851;22;20750;-92
2022/12/04 14:08:14;;;;;;;13.40;4.50;;;;;;;;;;6284879;22;20444;-91
2022/12/04 14:10:39;;;;;;;13.80;3.95;;;;;;;;;;6264455;22;20091;-92
2022/12/04 14:13:17;;;;;;;30.40;5.28;;;;;;;;;;6300454;22;20538;-91
2022/12/04 14:15:42;;;;;;;9.93;4.30;;;;;;;;;;6300418;22;19996;-91
2022/12/04 14:18:07;;;;;;;12.07;4.30;;;;;;;;;;6300335;22;20614;-91
2022/12/04 14:20:33;;;;;;;13.00;3.83;;;;;;;;;;6297772;22;20010;-91
2022/12/04 14:23:14;;;;;;;12.50;3.92;;;;;;;;;;6300058;22;20231;-91
2022/12/04 14:25:39;;;;;;;12.45;4.13;;;;;;;;;;6300475;22;20003;-91
2022/12/04 14:28:12;;;;;;;14.43;3.67;;;;;;;;;;6298763;22;20014;-91
2022/12/04 14:30:38;;;;;;;9.52;3.30;;;;;;;;;;6271877;22;19999;-92
2022/12/04 14:33:06;;;;;;;10.25;3.00;;;;;;;;;;6273348;22;20006;-92
2022/12/04 14:35:32;;;;;;;13.88;3.92;;;;;;;;;;6300198;22;20003;-92
2022/12/04 14:38:03;;;;;;;12.43;3.92;;;;;;;;;;6271007;22;20018;-92
2022/12/04 14:40:46;;;;;;;14.55;4.43;;;;;;;;;;6300092;22;20013;-92
2022/12/04 14:43:17;;;;;;;12.88;4.85;;;;;;;;;;6271366;22;20003;-92
2022/12/04 14:45:42;;;;;;;12.70;4.22;;;;;;;;;;6301263;22;19999;-90